Vernon Hills, Illinois
Current Conditions -  °F | °C
As of 8:52 AM on Wednesday 26 Nov 2014 (Local Time) from KPWK Reporting Station
Haze Haze  
Wind Chill: 22°   Ceiling: 2400
Heat Index: 22°   Visibility: 4mi
Dew Point: 18°   Wind: 0mph
Humidity: 85%   Direction: NA
Pressure: 30.17"   Gusts: NA
Location:  42.22°N, 87.97°W
Report Text: KPWK 261452Z 00000KT 4SM BR OVC024 M06/M08 A3017 RMK AO2 SLP226 T10561078 58003
Loading
Personal Weather Stations






























Interactive Weather Map New forecast layout! Learn more

10-Day Weather Forecast

Advertisements
Track Severe Weather on mobile